sensor_id;sensor_type;location;lat;lon;timestamp;P1;durP1;ratioP1;P2;durP2;ratioP2
18899;SDS011;9582;52.018;6.306;2023-09-08T00:01:53;11.57;;;10.48;;
18899;SDS011;9582;52.018;6.306;2023-09-08T00:04:20;11.55;;;10.52;;
18899;SDS011;9582;52.018;6.306;2023-09-08T00:06:48;12.15;;;10.40;;
18899;SDS011;9582;52.018;6.306;2023-09-08T00:09:14;12.40;;;11.20;;
18899;SDS011;9582;52.018;6.306;2023-09-08T00:11:41;10.00;;;9.18;;
18899;SDS011;9582;52.018;6.306;2023-09-08T00:14:07;9.90;;;8.85;;
18899;SDS011;9582;52.018;6.306;2023-09-08T00:16:34;10.88;;;9.65;;
18899;SDS011;9582;52.018;6.306;2023-09-08T00:19:00;10.20;;;9.20;;
18899;SDS011;9582;52.018;6.306;2023-09-08T00:21:27;9.77;;;8.80;;
18899;SDS011;9582;52.018;6.306;2023-09-08T00:23:54;14.73;;;9.48;;
18899;SDS011;9582;52.018;6.306;2023-09-08T00:26:21;11.30;;;10.25;;
18899;SDS011;9582;52.018;6.306;2023-09-08T00:28:48;10.00;;;9.07;;
18899;SDS011;9582;52.018;6.306;2023-09-08T00:31:15;10.18;;;9.07;;
18899;SDS011;9582;52.018;6.306;2023-09-08T00:33:41;11.35;;;9.70;;
18899;SDS011;9582;52.018;6.306;2023-09-08T00:36:09;12.32;;;10.27;;
18899;SDS011;9582;52.018;6.306;2023-09-08T00:38:35;11.52;;;10.30;;
18899;SDS011;9582;52.018;6.306;2023-09-08T00:41:04;11.18;;;10.13;;
18899;SDS011;9582;52.018;6.306;2023-09-08T00:43:30;11.82;;;10.57;;
18899;SDS011;9582;52.018;6.306;2023-09-08T00:45:57;10.57;;;9.55;;
18899;SDS011;9582;52.018;6.306;2023-09-08T00:48:26;10.88;;;9.77;;
18899;SDS011;9582;52.018;6.306;2023-09-08T00:50:52;12.80;;;10.90;;
18899;SDS011;9582;52.018;6.306;2023-09-08T00:53:19;11.70;;;10.55;;
18899;SDS011;9582;52.018;6.306;2023-09-08T00:55:47;11.90;;;10.65;;
18899;SDS011;9582;52.018;6.306;2023-09-08T00:58:15;10.73;;;9.63;;
18899;SDS011;9582;52.018;6.306;2023-09-08T01:00:42;10.65;;;9.45;;
18899;SDS011;9582;52.018;6.306;2023-09-08T01:03:10;10.57;;;9.57;;
18899;SDS011;9582;52.018;6.306;2023-09-08T01:05:37;12.95;;;10.27;;
18899;SDS011;9582;52.018;6.306;2023-09-08T01:08:06;11.40;;;10.30;;
18899;SDS011;9582;52.018;6.306;2023-09-08T01:10:33;11.98;;;10.77;;
18899;SDS011;9582;52.018;6.306;2023-09-08T01:13:00;12.13;;;10.85;;
18899;SDS011;9582;52.018;6.306;2023-09-08T01:15:27;11.82;;;10.55;;
18899;SDS011;9582;52.018;6.306;2023-09-08T01:17:54;11.80;;;10.57;;
18899;SDS011;9582;52.018;6.306;2023-09-08T01:20:22;11.35;;;10.23;;
18899;SDS011;9582;52.018;6.306;2023-09-08T01:22:55;11.68;;;10.48;;
18899;SDS011;9582;52.018;6.306;2023-09-08T01:25:31;11.32;;;10.10;;
18899;SDS011;9582;52.018;6.306;2023-09-08T01:28:01;11.23;;;10.13;;
18899;SDS011;9582;52.018;6.306;2023-09-08T01:30:30;13.32;;;11.05;;
18899;SDS011;9582;52.018;6.306;2023-09-08T01:32:58;11.40;;;10.18;;
18899;SDS011;9582;52.018;6.306;2023-09-08T01:35:25;11.77;;;10.65;;
18899;SDS011;9582;52.018;6.306;2023-09-08T01:37:51;12.38;;;10.65;;
18899;SDS011;9582;52.018;6.306;2023-09-08T01:40:18;13.90;;;10.98;;
18899;SDS011;9582;52.018;6.306;2023-09-08T01:42:46;12.00;;;10.80;;
18899;SDS011;9582;52.018;6.306;2023-09-08T01:45:13;11.55;;;10.40;;
18899;SDS011;9582;52.018;6.306;2023-09-08T01:47:40;12.93;;;11.20;;
18899;SDS011;9582;52.018;6.306;2023-09-08T01:50:07;12.13;;;10.95;;
18899;SDS011;9582;52.018;6.306;2023-09-08T01:52:34;11.80;;;10.60;;
18899;SDS011;9582;52.018;6.306;2023-09-08T01:55:01;12.13;;;10.88;;
18899;SDS011;9582;52.018;6.306;2023-09-08T01:57:28;12.82;;;11.02;;
18899;SDS011;9582;52.018;6.306;2023-09-08T01:59:55;12.63;;;11.32;;
18899;SDS011;9582;52.018;6.306;2023-09-08T02:02:22;12.50;;;11.20;;
18899;SDS011;9582;52.018;6.306;2023-09-08T02:04:48;12.63;;;11.43;;
18899;SDS011;9582;52.018;6.306;2023-09-08T02:07:15;13.45;;;12.15;;
18899;SDS011;9582;52.018;6.306;2023-09-08T02:09:41;13.20;;;11.35;;
18899;SDS011;9582;52.018;6.306;2023-09-08T02:12:08;12.95;;;11.50;;
18899;SDS011;9582;52.018;6.306;2023-09-08T02:14:34;13.45;;;10.85;;
18899;SDS011;9582;52.018;6.306;2023-09-08T02:17:02;15.10;;;12.18;;
18899;SDS011;9582;52.018;6.306;2023-09-08T02:19:29;13.77;;;12.32;;
18899;SDS011;9582;52.018;6.306;2023-09-08T02:21:56;12.75;;;11.55;;
18899;SDS011;9582;52.018;6.306;2023-09-08T02:24:22;13.00;;;11.70;;
18899;SDS011;9582;52.018;6.306;2023-09-08T02:26:49;13.48;;;11.88;;
18899;SDS011;9582;52.018;6.306;2023-09-08T02:29:17;12.93;;;11.63;;
18899;SDS011;9582;52.018;6.306;2023-09-08T02:31:44;13.63;;;11.65;;
18899;SDS011;9582;52.018;6.306;2023-09-08T02:34:12;13.95;;;12.50;;
18899;SDS011;9582;52.018;6.306;2023-09-08T02:36:39;13.77;;;12.38;;
18899;SDS011;9582;52.018;6.306;2023-09-08T02:39:06;15.50;;;12.35;;
18899;SDS011;9582;52.018;6.306;2023-09-08T02:41:33;13.27;;;11.23;;
18899;SDS011;9582;52.018;6.306;2023-09-08T02:44:00;13.20;;;11.82;;
18899;SDS011;9582;52.018;6.306;2023-09-08T02:46:26;12.82;;;11.52;;
18899;SDS011;9582;52.018;6.306;2023-09-08T02:48:53;12.88;;;11.68;;
18899;SDS011;9582;52.018;6.306;2023-09-08T02:51:22;13.07;;;11.77;;
18899;SDS011;9582;52.018;6.306;2023-09-08T02:53:48;14.23;;;12.55;;
18899;SDS011;9582;52.018;6.306;2023-09-08T02:56:15;13.02;;;11.68;;
18899;SDS011;9582;52.018;6.306;2023-09-08T02:58:41;13.38;;;12.07;;
18899;SDS011;9582;52.018;6.306;2023-09-08T03:01:09;13.25;;;12.00;;
18899;SDS011;9582;52.018;6.306;2023-09-08T03:03:38;14.02;;;12.55;;
18899;SDS011;9582;52.018;6.306;2023-09-08T03:06:05;14.05;;;12.65;;
18899;SDS011;9582;52.018;6.306;2023-09-08T03:08:33;14.23;;;12.70;;
18899;SDS011;9582;52.018;6.306;2023-09-08T03:11:03;14.48;;;12.52;;
18899;SDS011;9582;52.018;6.306;2023-09-08T03:13:30;14.18;;;12.77;;
18899;SDS011;9582;52.018;6.306;2023-09-08T03:15:57;15.32;;;13.15;;
18899;SDS011;9582;52.018;6.306;2023-09-08T03:18:27;14.07;;;12.65;;
18899;SDS011;9582;52.018;6.306;2023-09-08T03:20:54;14.63;;;13.13;;
18899;SDS011;9582;52.018;6.306;2023-09-08T03:23:21;14.80;;;12.85;;
18899;SDS011;9582;52.018;6.306;2023-09-08T03:25:49;14.25;;;12.75;;
18899;SDS011;9582;52.018;6.306;2023-09-08T03:28:16;15.38;;;13.73;;
18899;SDS011;9582;52.018;6.306;2023-09-08T03:30:42;15.20;;;13.70;;
18899;SDS011;9582;52.018;6.306;2023-09-08T03:33:09;16.38;;;14.45;;
18899;SDS011;9582;52.018;6.306;2023-09-08T03:35:35;16.30;;;14.60;;
18899;SDS011;9582;52.018;6.306;2023-09-08T03:38:02;16.45;;;14.85;;
18899;SDS011;9582;52.018;6.306;2023-09-08T03:40:28;16.30;;;14.57;;
18899;SDS011;9582;52.018;6.306;2023-09-08T03:42:57;15.98;;;14.40;;
18899;SDS011;9582;52.018;6.306;2023-09-08T03:45:23;15.35;;;13.38;;
18899;SDS011;9582;52.018;6.306;2023-09-08T03:47:50;16.95;;;14.95;;
18899;SDS011;9582;52.018;6.306;2023-09-08T03:50:17;16.25;;;14.55;;
18899;SDS011;9582;52.018;6.306;2023-09-08T03:52:43;16.45;;;14.73;;
18899;SDS011;9582;52.018;6.306;2023-09-08T03:55:10;19.48;;;15.70;;
18899;SDS011;9582;52.018;6.306;2023-09-08T03:57:37;17.85;;;16.08;;
18899;SDS011;9582;52.018;6.306;2023-09-08T04:00:06;18.30;;;16.30;;
18899;SDS011;9582;52.018;6.306;2023-09-08T04:02:39;18.38;;;16.48;;
18899;SDS011;9582;52.018;6.306;2023-09-08T04:05:06;19.10;;;17.08;;
18899;SDS011;9582;52.018;6.306;2023-09-08T04:07:33;20.55;;;17.83;;
18899;SDS011;9582;52.018;6.306;2023-09-08T04:09:59;19.38;;;17.30;;
18899;SDS011;9582;52.018;6.306;2023-09-08T04:12:26;21.10;;;17.95;;
18899;SDS011;9582;52.018;6.306;2023-09-08T04:14:53;20.70;;;18.15;;
18899;SDS011;9582;52.018;6.306;2023-09-08T04:17:21;18.35;;;16.58;;
18899;SDS011;9582;52.018;6.306;2023-09-08T04:19:47;18.88;;;16.88;;
18899;SDS011;9582;52.018;6.306;2023-09-08T04:22:14;19.33;;;17.33;;
18899;SDS011;9582;52.018;6.306;2023-09-08T04:24:41;18.60;;;16.67;;
18899;SDS011;9582;52.018;6.306;2023-09-08T04:27:07;19.60;;;17.55;;
18899;SDS011;9582;52.018;6.306;2023-09-08T04:29:35;21.23;;;18.30;;
18899;SDS011;9582;52.018;6.306;2023-09-08T04:32:02;20.40;;;18.30;;
18899;SDS011;9582;52.018;6.306;2023-09-08T04:34:36;18.17;;;16.38;;
18899;SDS011;9582;52.018;6.306;2023-09-08T04:37:03;17.35;;;15.55;;
18899;SDS011;9582;52.018;6.306;2023-09-08T04:39:29;17.08;;;15.40;;
18899;SDS011;9582;52.018;6.306;2023-09-08T04:41:56;15.82;;;14.23;;
18899;SDS011;9582;52.018;6.306;2023-09-08T04:44:22;15.75;;;14.15;;
18899;SDS011;9582;52.018;6.306;2023-09-08T04:46:49;18.15;;;16.17;;
18899;SDS011;9582;52.018;6.306;2023-09-08T04:49:17;16.73;;;14.95;;
18899;SDS011;9582;52.018;6.306;2023-09-08T04:51:44;18.65;;;15.85;;
18899;SDS011;9582;52.018;6.306;2023-09-08T04:54:14;18.83;;;16.50;;
18899;SDS011;9582;52.018;6.306;2023-09-08T04:56:41;17.40;;;15.57;;
18899;SDS011;9582;52.018;6.306;2023-09-08T04:59:07;20.23;;;17.92;;
18899;SDS011;9582;52.018;6.306;2023-09-08T05:01:34;21.10;;;18.90;;
18899;SDS011;9582;52.018;6.306;2023-09-08T05:04:02;20.50;;;18.40;;
18899;SDS011;9582;52.018;6.306;2023-09-08T05:06:30;19.73;;;17.13;;
18899;SDS011;9582;52.018;6.306;2023-09-08T05:08:58;17.88;;;15.98;;
18899;SDS011;9582;52.018;6.306;2023-09-08T05:11:26;19.30;;;17.40;;
18899;SDS011;9582;52.018;6.306;2023-09-08T05:13:53;19.73;;;16.65;;
18899;SDS011;9582;52.018;6.306;2023-09-08T05:16:20;18.45;;;16.55;;
18899;SDS011;9582;52.018;6.306;2023-09-08T05:19:01;18.63;;;16.63;;
18899;SDS011;9582;52.018;6.306;2023-09-08T05:21:28;20.17;;;17.10;;
18899;SDS011;9582;52.018;6.306;2023-09-08T05:23:54;19.05;;;16.05;;
18899;SDS011;9582;52.018;6.306;2023-09-08T05:26:22;17.55;;;15.40;;
18899;SDS011;9582;52.018;6.306;2023-09-08T05:28:49;18.30;;;16.50;;
18899;SDS011;9582;52.018;6.306;2023-09-08T05:31:15;20.58;;;18.00;;
18899;SDS011;9582;52.018;6.306;2023-09-08T05:33:42;19.83;;;17.83;;
18899;SDS011;9582;52.018;6.306;2023-09-08T05:36:09;19.02;;;16.92;;
18899;SDS011;9582;52.018;6.306;2023-09-08T05:38:35;21.67;;;17.92;;
18899;SDS011;9582;52.018;6.306;2023-09-08T05:41:02;19.98;;;17.83;;
18899;SDS011;9582;52.018;6.306;2023-09-08T05:43:30;19.23;;;17.23;;
18899;SDS011;9582;52.018;6.306;2023-09-08T05:45:57;19.52;;;17.38;;
18899;SDS011;9582;52.018;6.306;2023-09-08T05:48:23;18.75;;;16.92;;
18899;SDS011;9582;52.018;6.306;2023-09-08T05:50:51;20.00;;;17.90;;
18899;SDS011;9582;52.018;6.306;2023-09-08T05:53:18;19.23;;;17.10;;
18899;SDS011;9582;52.018;6.306;2023-09-08T05:55:44;20.15;;;18.02;;
18899;SDS011;9582;52.018;6.306;2023-09-08T05:58:11;20.42;;;18.05;;
18899;SDS011;9582;52.018;6.306;2023-09-08T06:00:39;21.05;;;18.75;;
18899;SDS011;9582;52.018;6.306;2023-09-08T06:03:06;19.85;;;17.73;;
18899;SDS011;9582;52.018;6.306;2023-09-08T06:05:33;19.50;;;17.50;;
18899;SDS011;9582;52.018;6.306;2023-09-08T06:07:59;18.63;;;16.73;;
18899;SDS011;9582;52.018;6.306;2023-09-08T06:10:26;17.73;;;15.93;;
18899;SDS011;9582;52.018;6.306;2023-09-08T06:12:52;19.00;;;15.45;;
18899;SDS011;9582;52.018;6.306;2023-09-08T06:15:19;15.93;;;14.43;;
18899;SDS011;9582;52.018;6.306;2023-09-08T06:17:47;15.90;;;14.38;;
18899;SDS011;9582;52.018;6.306;2023-09-08T06:20:13;16.02;;;14.25;;
18899;SDS011;9582;52.018;6.306;2023-09-08T06:22:41;14.20;;;12.80;;
18899;SDS011;9582;52.018;6.306;2023-09-08T06:25:08;15.10;;;13.60;;
18899;SDS011;9582;52.018;6.306;2023-09-08T06:27:37;15.98;;;14.35;;
18899;SDS011;9582;52.018;6.306;2023-09-08T06:30:04;15.60;;;13.98;;
18899;SDS011;9582;52.018;6.306;2023-09-08T06:32:32;14.13;;;12.82;;
18899;SDS011;9582;52.018;6.306;2023-09-08T06:35:01;14.88;;;13.30;;
18899;SDS011;9582;52.018;6.306;2023-09-08T06:37:28;15.50;;;13.88;;
18899;SDS011;9582;52.018;6.306;2023-09-08T06:39:55;14.25;;;12.70;;
18899;SDS011;9582;52.018;6.306;2023-09-08T06:42:22;14.75;;;13.35;;
18899;SDS011;9582;52.018;6.306;2023-09-08T06:44:55;16.35;;;13.48;;
18899;SDS011;9582;52.018;6.306;2023-09-08T06:47:22;14.48;;;13.00;;
18899;SDS011;9582;52.018;6.306;2023-09-08T06:49:48;14.32;;;12.85;;
18899;SDS011;9582;52.018;6.306;2023-09-08T06:52:16;14.48;;;13.07;;
18899;SDS011;9582;52.018;6.306;2023-09-08T06:54:43;14.23;;;12.80;;
18899;SDS011;9582;52.018;6.306;2023-09-08T06:57:11;13.77;;;12.38;;
18899;SDS011;9582;52.018;6.306;2023-09-08T06:59:37;14.35;;;12.95;;
18899;SDS011;9582;52.018;6.306;2023-09-08T07:02:04;12.95;;;11.80;;
18899;SDS011;9582;52.018;6.306;2023-09-08T07:04:30;13.00;;;11.68;;
18899;SDS011;9582;52.018;6.306;2023-09-08T07:06:57;13.85;;;12.38;;
18899;SDS011;9582;52.018;6.306;2023-09-08T07:09:30;13.35;;;11.95;;
18899;SDS011;9582;52.018;6.306;2023-09-08T07:11:56;13.52;;;12.27;;
18899;SDS011;9582;52.018;6.306;2023-09-08T07:14:23;13.50;;;12.20;;
18899;SDS011;9582;52.018;6.306;2023-09-08T07:16:49;13.13;;;11.93;;
18899;SDS011;9582;52.018;6.306;2023-09-08T07:19:16;14.00;;;12.50;;
18899;SDS011;9582;52.018;6.306;2023-09-08T07:21:43;12.73;;;11.43;;
18899;SDS011;9582;52.018;6.306;2023-09-08T07:24:10;13.68;;;12.25;;
18899;SDS011;9582;52.018;6.306;2023-09-08T07:26:38;14.43;;;12.25;;
18899;SDS011;9582;52.018;6.306;2023-09-08T07:29:05;12.25;;;11.10;;
18899;SDS011;9582;52.018;6.306;2023-09-08T07:31:31;12.93;;;11.57;;
18899;SDS011;9582;52.018;6.306;2023-09-08T07:33:58;13.35;;;11.98;;
18899;SDS011;9582;52.018;6.306;2023-09-08T07:36:26;12.30;;;11.10;;
18899;SDS011;9582;52.018;6.306;2023-09-08T07:38:52;12.93;;;11.82;;
18899;SDS011;9582;52.018;6.306;2023-09-08T07:41:19;13.77;;;12.10;;
18899;SDS011;9582;52.018;6.306;2023-09-08T07:43:47;12.60;;;11.27;;
18899;SDS011;9582;52.018;6.306;2023-09-08T07:46:17;11.30;;;9.15;;
18899;SDS011;9582;52.018;6.306;2023-09-08T07:48:44;10.40;;;9.40;;
18899;SDS011;9582;52.018;6.306;2023-09-08T07:51:10;9.30;;;8.40;;
18899;SDS011;9582;52.018;6.306;2023-09-08T07:53:37;10.10;;;8.77;;
18899;SDS011;9582;52.018;6.306;2023-09-08T07:56:04;9.52;;;8.57;;
18899;SDS011;9582;52.018;6.306;2023-09-08T07:58:30;10.20;;;8.65;;
18899;SDS011;9582;52.018;6.306;2023-09-08T08:00:58;10.18;;;9.00;;
18899;SDS011;9582;52.018;6.306;2023-09-08T08:03:25;9.13;;;8.23;;
18899;SDS011;9582;52.018;6.306;2023-09-08T08:05:51;9.38;;;8.32;;
18899;SDS011;9582;52.018;6.306;2023-09-08T08:08:17;11.85;;;8.65;;
18899;SDS011;9582;52.018;6.306;2023-09-08T08:10:44;8.68;;;7.68;;
18899;SDS011;9582;52.018;6.306;2023-09-08T08:13:10;9.68;;;8.55;;
18899;SDS011;9582;52.018;6.306;2023-09-08T08:15:37;9.85;;;8.60;;
18899;SDS011;9582;52.018;6.306;2023-09-08T08:18:06;11.02;;;8.63;;
18899;SDS011;9582;52.018;6.306;2023-09-08T08:20:34;11.05;;;8.60;;
18899;SDS011;9582;52.018;6.306;2023-09-08T08:23:01;8.73;;;7.88;;
18899;SDS011;9582;52.018;6.306;2023-09-08T08:25:28;10.38;;;8.00;;
18899;SDS011;9582;52.018;6.306;2023-09-08T08:27:55;9.73;;;8.07;;
18899;SDS011;9582;52.018;6.306;2023-09-08T08:30:23;9.07;;;8.27;;
18899;SDS011;9582;52.018;6.306;2023-09-08T08:32:50;8.60;;;7.53;;
18899;SDS011;9582;52.018;6.306;2023-09-08T08:35:19;10.75;;;7.90;;
18899;SDS011;9582;52.018;6.306;2023-09-08T08:37:46;9.32;;;8.02;;
18899;SDS011;9582;52.018;6.306;2023-09-08T08:40:12;8.25;;;7.57;;
18899;SDS011;9582;52.018;6.306;2023-09-08T08:42:40;9.63;;;8.20;;
18899;SDS011;9582;52.018;6.306;2023-09-08T08:45:07;9.05;;;7.75;;
18899;SDS011;9582;52.018;6.306;2023-09-08T08:47:34;10.25;;;8.07;;
18899;SDS011;9582;52.018;6.306;2023-09-08T08:50:00;9.73;;;8.10;;
18899;SDS011;9582;52.018;6.306;2023-09-08T08:52:30;9.25;;;8.00;;
18899;SDS011;9582;52.018;6.306;2023-09-08T08:54:57;11.50;;;7.68;;
18899;SDS011;9582;52.018;6.306;2023-09-08T08:57:24;9.02;;;7.47;;
18899;SDS011;9582;52.018;6.306;2023-09-08T08:59:52;9.40;;;8.05;;
18899;SDS011;9582;52.018;6.306;2023-09-08T09:02:19;10.48;;;7.90;;
18899;SDS011;9582;52.018;6.306;2023-09-08T09:04:47;9.18;;;7.70;;
18899;SDS011;9582;52.018;6.306;2023-09-08T09:07:14;9.90;;;7.97;;
18899;SDS011;9582;52.018;6.306;2023-09-08T09:09:42;8.77;;;7.80;;
18899;SDS011;9582;52.018;6.306;2023-09-08T09:12:09;9.60;;;7.90;;
18899;SDS011;9582;52.018;6.306;2023-09-08T09:14:35;10.45;;;8.88;;
18899;SDS011;9582;52.018;6.306;2023-09-08T09:17:01;8.35;;;7.55;;
18899;SDS011;9582;52.018;6.306;2023-09-08T09:19:30;10.43;;;8.18;;
18899;SDS011;9582;52.018;6.306;2023-09-08T09:21:57;8.05;;;7.15;;
18899;SDS011;9582;52.018;6.306;2023-09-08T09:24:28;10.02;;;7.72;;
18899;SDS011;9582;52.018;6.306;2023-09-08T09:26:59;12.07;;;7.65;;
18899;SDS011;9582;52.018;6.306;2023-09-08T09:29:26;8.43;;;7.20;;
18899;SDS011;9582;52.018;6.306;2023-09-08T09:31:53;9.02;;;7.97;;
18899;SDS011;9582;52.018;6.306;2023-09-08T09:34:21;8.15;;;7.30;;
18899;SDS011;9582;52.018;6.306;2023-09-08T09:36:48;8.75;;;7.75;;
18899;SDS011;9582;52.018;6.306;2023-09-08T09:39:19;7.97;;;7.18;;
18899;SDS011;9582;52.018;6.306;2023-09-08T09:41:47;7.88;;;7.18;;
18899;SDS011;9582;52.018;6.306;2023-09-08T09:44:16;8.13;;;7.35;;
18899;SDS011;9582;52.018;6.306;2023-09-08T09:46:43;8.15;;;7.35;;
18899;SDS011;9582;52.018;6.306;2023-09-08T09:49:10;7.70;;;7.00;;
18899;SDS011;9582;52.018;6.306;2023-09-08T09:51:39;8.20;;;7.20;;
18899;SDS011;9582;52.018;6.306;2023-09-08T09:54:06;8.10;;;7.30;;
18899;SDS011;9582;52.018;6.306;2023-09-08T09:56:33;8.07;;;7.28;;
18899;SDS011;9582;52.018;6.306;2023-09-08T09:59:01;9.77;;;7.15;;
18899;SDS011;9582;52.018;6.306;2023-09-08T10:01:31;9.07;;;7.88;;
18899;SDS011;9582;52.018;6.306;2023-09-08T10:03:58;8.82;;;7.70;;
18899;SDS011;9582;52.018;6.306;2023-09-08T10:06:26;10.30;;;7.38;;
18899;SDS011;9582;52.018;6.306;2023-09-08T10:08:52;7.47;;;6.63;;
18899;SDS011;9582;52.018;6.306;2023-09-08T10:11:21;9.63;;;7.50;;
18899;SDS011;9582;52.018;6.306;2023-09-08T10:13:50;8.50;;;7.25;;
18899;SDS011;9582;52.018;6.306;2023-09-08T10:16:19;7.40;;;6.70;;
18899;SDS011;9582;52.018;6.306;2023-09-08T10:18:48;8.05;;;6.75;;
18899;SDS011;9582;52.018;6.306;2023-09-08T10:21:17;9.50;;;7.38;;
18899;SDS011;9582;52.018;6.306;2023-09-08T10:23:49;10.27;;;7.97;;
18899;SDS011;9582;52.018;6.306;2023-09-08T10:26:19;10.18;;;7.38;;
18899;SDS011;9582;52.018;6.306;2023-09-08T10:28:51;8.43;;;7.63;;
18899;SDS011;9582;52.018;6.306;2023-09-08T10:31:21;9.68;;;6.97;;
18899;SDS011;9582;52.018;6.306;2023-09-08T10:33:50;9.10;;;7.05;;
18899;SDS011;9582;52.018;6.306;2023-09-08T10:36:16;9.85;;;7.82;;
18899;SDS011;9582;52.018;6.306;2023-09-08T10:38:44;7.38;;;6.50;;
18899;SDS011;9582;52.018;6.306;2023-09-08T10:43:57;9.65;;;6.63;;
18899;SDS011;9582;52.018;6.306;2023-09-08T10:46:28;10.02;;;6.70;;
18899;SDS011;9582;52.018;6.306;2023-09-08T10:49:01;7.50;;;6.80;;
18899;SDS011;9582;52.018;6.306;2023-09-08T10:51:29;8.43;;;6.75;;
18899;SDS011;9582;52.018;6.306;2023-09-08T10:53:56;7.38;;;6.63;;
18899;SDS011;9582;52.018;6.306;2023-09-08T10:56:26;6.80;;;6.20;;
18899;SDS011;9582;52.018;6.306;2023-09-08T10:58:53;6.57;;;5.90;;
18899;SDS011;9582;52.018;6.306;2023-09-08T11:01:20;9.05;;;6.32;;
18899;SDS011;9582;52.018;6.306;2023-09-08T11:03:51;7.40;;;6.15;;
18899;SDS011;9582;52.018;6.306;2023-09-08T11:06:20;7.10;;;6.35;;
18899;SDS011;9582;52.018;6.306;2023-09-08T11:08:48;7.00;;;6.35;;
18899;SDS011;9582;52.018;6.306;2023-09-08T11:11:18;8.75;;;6.18;;
18899;SDS011;9582;52.018;6.306;2023-09-08T11:13:45;7.65;;;6.07;;
18899;SDS011;9582;52.018;6.306;2023-09-08T11:16:12;7.35;;;6.68;;
18899;SDS011;9582;52.018;6.306;2023-09-08T11:18:40;6.82;;;6.15;;
18899;SDS011;9582;52.018;6.306;2023-09-08T11:21:08;8.27;;;6.45;;
18899;SDS011;9582;52.018;6.306;2023-09-08T11:23:36;6.63;;;6.03;;
18899;SDS011;9582;52.018;6.306;2023-09-08T11:26:03;6.60;;;6.05;;
18899;SDS011;9582;52.018;6.306;2023-09-08T11:28:31;7.65;;;6.55;;
18899;SDS011;9582;52.018;6.306;2023-09-08T11:30:58;7.93;;;6.32;;
18899;SDS011;9582;52.018;6.306;2023-09-08T11:33:25;6.30;;;5.70;;
18899;SDS011;9582;52.018;6.306;2023-09-08T11:35:51;8.27;;;5.75;;
18899;SDS011;9582;52.018;6.306;2023-09-08T11:38:19;6.85;;;5.40;;
18899;SDS011;9582;52.018;6.306;2023-09-08T11:40:52;8.38;;;5.65;;
18899;SDS011;9582;52.018;6.306;2023-09-08T11:43:19;7.50;;;5.75;;
18899;SDS011;9582;52.018;6.306;2023-09-08T11:45:46;6.13;;;5.53;;
18899;SDS011;9582;52.018;6.306;2023-09-08T11:48:13;6.93;;;6.20;;
18899;SDS011;9582;52.018;6.306;2023-09-08T11:50:40;6.35;;;5.75;;
18899;SDS011;9582;52.018;6.306;2023-09-08T11:53:07;6.68;;;5.95;;
18899;SDS011;9582;52.018;6.306;2023-09-08T11:55:34;6.85;;;6.18;;
18899;SDS011;9582;52.018;6.306;2023-09-08T11:58:03;9.13;;;5.95;;
18899;SDS011;9582;52.018;6.306;2023-09-08T12:00:30;7.15;;;6.18;;
18899;SDS011;9582;52.018;6.306;2023-09-08T12:03:08;7.07;;;6.38;;
18899;SDS011;9582;52.018;6.306;2023-09-08T12:05:36;6.43;;;5.80;;
18899;SDS011;9582;52.018;6.306;2023-09-08T12:08:04;6.90;;;6.28;;
18899;SDS011;9582;52.018;6.306;2023-09-08T12:10:37;6.57;;;5.97;;
18899;SDS011;9582;52.018;6.306;2023-09-08T12:13:05;7.78;;;5.93;;
18899;SDS011;9582;52.018;6.306;2023-09-08T12:15:32;9.57;;;5.47;;
18899;SDS011;9582;52.018;6.306;2023-09-08T12:18:00;8.93;;;6.20;;
18899;SDS011;9582;52.018;6.306;2023-09-08T12:20:28;6.43;;;5.38;;
18899;SDS011;9582;52.018;6.306;2023-09-08T12:22:57;6.80;;;5.93;;
18899;SDS011;9582;52.018;6.306;2023-09-08T12:25:25;7.47;;;5.82;;
18899;SDS011;9582;52.018;6.306;2023-09-08T12:27:53;6.90;;;6.05;;
18899;SDS011;9582;52.018;6.306;2023-09-08T12:30:22;6.47;;;5.88;;
18899;SDS011;9582;52.018;6.306;2023-09-08T12:32:55;6.40;;;5.80;;
18899;SDS011;9582;52.018;6.306;2023-09-08T12:35:23;6.95;;;6.05;;
18899;SDS011;9582;52.018;6.306;2023-09-08T12:37:52;6.90;;;5.95;;
18899;SDS011;9582;52.018;6.306;2023-09-08T12:40:19;6.88;;;5.93;;
18899;SDS011;9582;52.018;6.306;2023-09-08T12:42:46;6.28;;;5.70;;
18899;SDS011;9582;52.018;6.306;2023-09-08T12:45:12;5.90;;;5.35;;
18899;SDS011;9582;52.018;6.306;2023-09-08T12:47:40;6.03;;;5.43;;
18899;SDS011;9582;52.018;6.306;2023-09-08T12:50:07;5.57;;;5.07;;
18899;SDS011;9582;52.018;6.306;2023-09-08T12:52:33;6.65;;;5.75;;
18899;SDS011;9582;52.018;6.306;2023-09-08T12:55:00;5.93;;;5.38;;
18899;SDS011;9582;52.018;6.306;2023-09-08T12:57:26;6.20;;;5.70;;
18899;SDS011;9582;52.018;6.306;2023-09-08T12:59:55;6.20;;;5.60;;
18899;SDS011;9582;52.018;6.306;2023-09-08T13:02:21;7.25;;;5.53;;
18899;SDS011;9582;52.018;6.306;2023-09-08T13:04:49;6.10;;;5.53;;
18899;SDS011;9582;52.018;6.306;2023-09-08T13:07:15;6.93;;;5.90;;
18899;SDS011;9582;52.018;6.306;2023-09-08T13:09:42;6.68;;;6.05;;
18899;SDS011;9582;52.018;6.306;2023-09-08T13:12:08;5.80;;;4.95;;
18899;SDS011;9582;52.018;6.306;2023-09-08T13:14:36;5.80;;;5.30;;
18899;SDS011;9582;52.018;6.306;2023-09-08T13:17:03;8.05;;;5.35;;
18899;SDS011;9582;52.018;6.306;2023-09-08T13:19:29;5.38;;;4.88;;
18899;SDS011;9582;52.018;6.306;2023-09-08T13:21:58;5.57;;;5.07;;
18899;SDS011;9582;52.018;6.306;2023-09-08T13:24:25;8.07;;;5.38;;
18899;SDS011;9582;52.018;6.306;2023-09-08T13:26:51;8.30;;;5.13;;
18899;SDS011;9582;52.018;6.306;2023-09-08T13:29:17;7.22;;;5.20;;
18899;SDS011;9582;52.018;6.306;2023-09-08T13:31:44;6.35;;;5.25;;
18899;SDS011;9582;52.018;6.306;2023-09-08T13:34:11;5.95;;;5.00;;
18899;SDS011;9582;52.018;6.306;2023-09-08T13:36:37;6.63;;;5.32;;
18899;SDS011;9582;52.018;6.306;2023-09-08T13:39:05;5.55;;;5.00;;
18899;SDS011;9582;52.018;6.306;2023-09-08T13:41:44;8.27;;;5.22;;
18899;SDS011;9582;52.018;6.306;2023-09-08T13:44:11;6.05;;;4.97;;
18899;SDS011;9582;52.018;6.306;2023-09-08T13:46:38;5.78;;;5.25;;
18899;SDS011;9582;52.018;6.306;2023-09-08T13:49:04;5.88;;;5.35;;
18899;SDS011;9582;52.018;6.306;2023-09-08T13:51:31;5.60;;;4.65;;
18899;SDS011;9582;52.018;6.306;2023-09-08T13:53:58;6.20;;;5.00;;
18899;SDS011;9582;52.018;6.306;2023-09-08T13:56:26;5.75;;;5.05;;
18899;SDS011;9582;52.018;6.306;2023-09-08T13:58:52;6.88;;;5.13;;
18899;SDS011;9582;52.018;6.306;2023-09-08T14:01:19;5.75;;;4.90;;
18899;SDS011;9582;52.018;6.306;2023-09-08T14:03:45;5.85;;;5.25;;
18899;SDS011;9582;52.018;6.306;2023-09-08T14:06:14;6.03;;;5.43;;
18899;SDS011;9582;52.018;6.306;2023-09-08T14:08:41;6.45;;;5.38;;
18899;SDS011;9582;52.018;6.306;2023-09-08T14:11:07;6.32;;;5.60;;
18899;SDS011;9582;52.018;6.306;2023-09-08T14:13:35;5.55;;;4.78;;
18899;SDS011;9582;52.018;6.306;2023-09-08T14:16:03;6.03;;;5.53;;
18899;SDS011;9582;52.018;6.306;2023-09-08T14:18:30;7.03;;;5.50;;
18899;SDS011;9582;52.018;6.306;2023-09-08T14:20:56;5.90;;;5.30;;
18899;SDS011;9582;52.018;6.306;2023-09-08T14:23:23;5.78;;;5.28;;
18899;SDS011;9582;52.018;6.306;2023-09-08T14:25:50;6.00;;;5.40;;
18899;SDS011;9582;52.018;6.306;2023-09-08T14:28:16;6.25;;;5.65;;
18899;SDS011;9582;52.018;6.306;2023-09-08T14:30:44;5.88;;;5.35;;
18899;SDS011;9582;52.018;6.306;2023-09-08T14:33:10;6.30;;;5.70;;
18899;SDS011;9582;52.018;6.306;2023-09-08T14:35:40;6.95;;;5.50;;
18899;SDS011;9582;52.018;6.306;2023-09-08T14:38:07;6.95;;;5.18;;
18899;SDS011;9582;52.018;6.306;2023-09-08T14:40:34;7.57;;;5.43;;
18899;SDS011;9582;52.018;6.306;2023-09-08T14:43:00;5.95;;;5.32;;
18899;SDS011;9582;52.018;6.306;2023-09-08T14:45:28;6.15;;;5.55;;
18899;SDS011;9582;52.018;6.306;2023-09-08T14:47:55;6.63;;;5.85;;
18899;SDS011;9582;52.018;6.306;2023-09-08T14:50:22;6.35;;;5.53;;
18899;SDS011;9582;52.018;6.306;2023-09-08T14:52:48;7.40;;;5.53;;